createdAt,value
2023-10-20T00:00:17.210Z,15.80
2023-10-20T00:05:39.480Z,13.97
2023-10-20T00:11:05.769Z,14.77
2023-10-20T00:16:28.947Z,13.97
2023-10-20T00:21:53.095Z,14.40
2023-10-20T00:27:15.764Z,14.33
2023-10-20T00:32:41.767Z,14.63
2023-10-20T00:38:04.644Z,13.37
2023-10-20T00:51:20.481Z,13.97
2023-10-20T00:56:43.653Z,14.00
2023-10-20T01:02:06.199Z,13.13
2023-10-20T01:07:28.727Z,12.50
2023-10-20T01:12:51.215Z,12.23
2023-10-20T01:18:14.688Z,11.30
2023-10-20T01:23:39.085Z,10.67
2023-10-20T01:29:06.904Z,9.67
2023-10-20T01:34:29.505Z,9.40
2023-10-20T01:39:51.849Z,9.90
2023-10-20T01:45:14.504Z,8.63
2023-10-20T01:50:36.832Z,9.50
2023-10-20T01:55:59.504Z,8.87
2023-10-20T02:01:24.418Z,7.33
2023-10-20T02:06:47.154Z,7.20
2023-10-20T02:12:11.571Z,5.83
2023-10-20T02:17:34.220Z,5.10
2023-10-20T02:22:56.519Z,5.20
2023-10-20T02:28:18.767Z,4.50
2023-10-20T02:33:41.489Z,4.53
2023-10-20T02:39:04.151Z,4.27
2023-10-20T02:44:28.811Z,4.10
2023-10-20T02:49:56.774Z,3.93
2023-10-20T02:55:19.250Z,4.20
2023-10-20T03:00:46.424Z,4.73
2023-10-20T03:06:09.716Z,4.30
2023-10-20T03:11:32.416Z,4.80
2023-10-20T03:16:55.014Z,4.40
2023-10-20T03:22:17.333Z,4.97
2023-10-20T03:27:39.594Z,5.30
2023-10-20T03:33:01.799Z,5.50
2023-10-20T03:38:24.951Z,5.33
2023-10-20T03:43:48.784Z,5.67
2023-10-20T03:49:11.214Z,5.93
2023-10-20T03:54:35.018Z,5.63
2023-10-20T03:59:58.175Z,5.33
2023-10-20T04:05:20.990Z,5.43
2023-10-20T04:10:43.808Z,5.23
2023-10-20T04:16:18.342Z,5.63
2023-10-20T04:21:42.043Z,5.60
2023-10-20T04:27:06.101Z,5.87
2023-10-20T04:32:47.991Z,5.30
2023-10-20T04:38:28.853Z,5.63
2023-10-20T04:44:10.084Z,6.30
2023-10-20T04:49:35.360Z,6.57
2023-10-20T04:54:57.863Z,6.67
2023-10-20T05:00:21.543Z,6.70
2023-10-20T05:05:59.770Z,6.90
2023-10-20T05:11:22.083Z,7.13
2023-10-20T05:16:44.649Z,7.27
2023-10-20T05:22:06.851Z,7.10
2023-10-20T05:27:29.332Z,7.03
2023-10-20T05:32:51.866Z,7.30
2023-10-20T05:38:14.516Z,7.77
2023-10-20T05:43:37.030Z,8.40
2023-10-20T05:48:59.469Z,7.60
2023-10-20T05:54:21.866Z,7.83
2023-10-20T05:59:44.347Z,8.73
2023-10-20T06:05:08.589Z,8.67
2023-10-20T06:10:31.603Z,7.57
2023-10-20T06:15:54.276Z,7.73
2023-10-20T06:21:20.522Z,8.27
2023-10-20T06:26:43.175Z,7.87
2023-10-20T06:32:41.445Z,7.43
2023-10-20T06:38:09.781Z,7.33
2023-10-20T06:43:32.090Z,9.47
2023-10-20T06:48:54.290Z,7.90
2023-10-20T06:54:17.856Z,8.07
2023-10-20T06:59:40.510Z,7.23
2023-10-20T07:05:03.112Z,8.67
2023-10-20T07:10:25.936Z,8.10
2023-10-20T07:15:53.566Z,7.93
2023-10-20T07:21:16.060Z,12.13
2023-10-20T07:26:38.378Z,7.50
2023-10-20T07:32:01.046Z,7.37
2023-10-20T07:37:23.454Z,7.37
2023-10-20T07:42:47.841Z,7.27
2023-10-20T07:48:12.130Z,6.77
2023-10-20T07:53:34.831Z,6.67
2023-10-20T07:58:57.618Z,6.27
2023-10-20T08:04:20.115Z,6.53
2023-10-20T08:09:42.992Z,5.97
2023-10-20T08:15:05.879Z,6.23
2023-10-20T08:20:28.227Z,6.20
2023-10-20T08:25:50.762Z,6.33
2023-10-20T08:31:20.052Z,6.30
2023-10-20T08:36:42.634Z,6.30
2023-10-20T08:42:20.496Z,7.03
2023-10-20T08:47:43.976Z,6.80
2023-10-20T08:53:08.017Z,6.77
2023-10-20T08:58:31.234Z,7.00
2023-10-20T09:03:56.361Z,6.90
2023-10-20T09:09:20.526Z,6.87
2023-10-20T09:14:43.077Z,6.83
2023-10-20T09:20:15.508Z,6.87
2023-10-20T09:25:38.374Z,5.57
2023-10-20T09:31:01.554Z,5.90
2023-10-20T09:36:24.941Z,6.43
2023-10-20T09:41:52.019Z,6.33
2023-10-20T09:47:20.922Z,6.67
2023-10-20T09:52:43.973Z,5.33
2023-10-20T09:58:06.526Z,4.90
2023-10-20T10:03:39.344Z,4.77
2023-10-20T10:09:05.286Z,4.80
2023-10-20T10:14:28.876Z,4.10
2023-10-20T10:19:52.351Z,3.90
2023-10-20T10:25:15.319Z,3.80
2023-10-20T10:30:39.209Z,4.20
2023-10-20T10:36:11.569Z,4.07
2023-10-20T10:41:35.582Z,3.70
2023-10-20T10:46:59.221Z,4.07
2023-10-20T10:52:22.535Z,4.20
2023-10-20T10:57:45.167Z,3.83
2023-10-20T11:03:09.067Z,3.80
2023-10-20T11:08:32.537Z,3.47
2023-10-20T11:13:57.199Z,3.70
2023-10-20T11:19:19.894Z,4.10
2023-10-20T11:24:42.262Z,3.90
2023-10-20T11:30:07.772Z,3.43
2023-10-20T11:35:30.428Z,3.70
2023-10-20T11:40:53.019Z,2.97
2023-10-20T11:46:15.510Z,3.37
2023-10-20T11:51:41.279Z,3.73
2023-10-20T11:57:03.999Z,3.30
2023-10-20T12:02:26.654Z,3.23
2023-10-20T12:07:51.829Z,3.00
2023-10-20T12:13:14.536Z,2.87
2023-10-20T12:18:37.263Z,2.60
2023-10-20T12:23:59.917Z,3.07
2023-10-20T12:29:25.668Z,2.90
2023-10-20T12:34:48.123Z,2.70
2023-10-20T12:40:10.541Z,2.47
2023-10-20T12:45:33.997Z,2.07
2023-10-20T12:50:58.309Z,1.90
2023-10-20T12:56:21.068Z,2.20
2023-10-20T13:01:43.798Z,1.90
2023-10-20T13:07:06.414Z,1.93
2023-10-20T13:12:28.662Z,1.70
2023-10-20T13:17:50.977Z,1.90
2023-10-20T13:23:14.037Z,1.60
2023-10-20T13:28:37.989Z,1.70
2023-10-20T13:34:01.089Z,1.73
2023-10-20T13:44:50.652Z,1.47
2023-10-20T13:50:13.692Z,1.93
2023-10-20T13:55:36.311Z,1.83
2023-10-20T14:00:58.719Z,1.53
2023-10-20T14:06:21.221Z,1.70
2023-10-20T14:11:43.628Z,1.50
2023-10-20T14:17:08.495Z,1.93
2023-10-20T14:22:31.728Z,1.67
2023-10-20T14:27:56.314Z,1.63
2023-10-20T14:33:18.715Z,1.47
2023-10-20T14:38:41.455Z,1.53
2023-10-20T14:44:04.656Z,1.60
2023-10-20T14:49:26.941Z,1.50
2023-10-20T14:54:49.221Z,1.53
2023-10-20T15:00:12.375Z,1.50
2023-10-20T15:05:39.021Z,2.00
2023-10-20T15:11:09.277Z,1.77
2023-10-20T15:16:31.756Z,1.60
2023-10-20T15:21:54.061Z,1.47
2023-10-20T15:27:18.975Z,1.33
2023-10-20T15:32:42.721Z,2.47
2023-10-20T15:38:05.405Z,1.80
2023-10-20T15:43:28.381Z,1.87
2023-10-20T15:48:51.158Z,1.77
2023-10-20T15:54:18.874Z,1.67
2023-10-20T15:59:44.395Z,1.50
2023-10-20T16:05:07.114Z,1.70
2023-10-20T16:10:29.975Z,1.50
2023-10-20T16:15:52.427Z,1.60
2023-10-20T16:21:15.994Z,1.70
2023-10-20T16:26:40.155Z,1.67
2023-10-20T16:32:02.699Z,1.93
2023-10-20T16:37:25.117Z,2.40
2023-10-20T16:42:48.102Z,2.00
2023-10-20T16:48:11.164Z,1.83
2023-10-20T16:53:34.018Z,2.00
2023-10-20T16:58:56.182Z,2.07
2023-10-20T17:04:18.594Z,2.07
2023-10-20T17:09:41.568Z,2.30
2023-10-20T17:15:05.226Z,2.07
2023-10-20T17:20:27.627Z,2.13
2023-10-20T17:25:49.838Z,3.20
2023-10-20T17:31:12.626Z,2.43
2023-10-20T17:36:35.041Z,2.53
2023-10-20T17:41:58.003Z,2.40
2023-10-20T17:47:20.582Z,2.33
2023-10-20T17:52:42.999Z,2.93
2023-10-20T17:58:05.271Z,2.60
2023-10-20T18:03:27.779Z,2.63
2023-10-20T18:08:52.620Z,2.70
2023-10-20T18:14:15.215Z,2.83
2023-10-20T18:19:37.558Z,2.77
2023-10-20T18:25:00.044Z,2.63
2023-10-20T18:30:22.297Z,3.23
2023-10-20T18:35:44.621Z,3.10
2023-10-20T18:41:17.537Z,3.77
2023-10-20T18:46:41.083Z,3.07
2023-10-20T18:52:03.754Z,2.67
2023-10-20T18:57:26.108Z,3.57
2023-10-20T19:02:48.398Z,2.97
2023-10-20T19:08:10.770Z,3.13
2023-10-20T19:13:34.957Z,3.87
2023-10-20T19:18:57.730Z,3.77
2023-10-20T19:24:20.273Z,3.77
2023-10-20T19:29:43.553Z,3.87
2023-10-20T19:35:06.720Z,3.83
2023-10-20T19:40:29.033Z,4.10
2023-10-20T19:45:53.549Z,4.00
2023-10-20T19:51:16.534Z,4.37
2023-10-20T19:56:39.085Z,4.30
2023-10-20T20:02:01.806Z,4.23
2023-10-20T20:07:24.827Z,4.43
2023-10-20T20:12:47.373Z,4.57
2023-10-20T20:18:09.859Z,4.70
2023-10-20T20:23:32.329Z,4.80
2023-10-20T20:28:54.924Z,4.77
2023-10-20T20:34:17.568Z,4.50
2023-10-20T20:39:40.255Z,4.70
2023-10-20T20:45:02.637Z,4.93
2023-10-20T20:50:33.237Z,5.10
2023-10-20T20:55:56.274Z,4.90
2023-10-20T21:01:18.844Z,6.07
2023-10-20T21:06:41.072Z,7.87
2023-10-20T21:12:05.541Z,6.63
2023-10-20T21:17:27.917Z,6.53
2023-10-20T21:22:54.595Z,6.27
2023-10-20T21:28:17.050Z,6.57
2023-10-20T21:33:39.845Z,7.50
2023-10-20T21:39:02.328Z,6.90
2023-10-20T21:44:24.935Z,8.03
2023-10-20T21:49:47.297Z,6.93
2023-10-20T21:55:10.205Z,7.10
2023-10-20T22:00:32.896Z,7.97
2023-10-20T22:05:55.819Z,7.43
2023-10-20T22:11:18.373Z,7.80
2023-10-20T22:16:41.099Z,8.57
2023-10-20T22:22:03.996Z,8.07
2023-10-20T22:27:28.392Z,8.17
2023-10-20T22:32:51.124Z,8.10
2023-10-20T22:38:13.395Z,8.80
2023-10-20T22:43:36.022Z,9.60
2023-10-20T22:48:58.157Z,9.33
2023-10-20T22:54:20.734Z,9.50
2023-10-20T22:59:43.310Z,9.40
2023-10-20T23:05:07.997Z,9.37
2023-10-20T23:10:30.842Z,9.93
2023-10-20T23:15:53.562Z,9.20
2023-10-20T23:21:15.992Z,9.87
2023-10-20T23:26:38.885Z,9.73
2023-10-20T23:32:01.441Z,10.53
2023-10-20T23:37:25.688Z,10.40
2023-10-20T23:42:47.946Z,10.97
2023-10-20T23:48:10.239Z,10.07
2023-10-20T23:53:32.820Z,10.87
2023-10-20T23:58:55.026Z,11.17
